sensor_id;sensor_type;location;lat;lon;timestamp;temperature;humidity
10192;DHT22;17580;50.850;4.504;2023-09-12T00:01:23;20.60;82.30
10192;DHT22;17580;50.850;4.504;2023-09-12T00:03:50;20.50;82.00
10192;DHT22;17580;50.850;4.504;2023-09-12T00:06:17;20.60;83.50
10192;DHT22;17580;50.850;4.504;2023-09-12T00:08:44;20.60;83.50
10192;DHT22;17580;50.850;4.504;2023-09-12T00:11:11;20.60;82.20
10192;DHT22;17580;50.850;4.504;2023-09-12T00:13:40;20.50;82.50
10192;DHT22;17580;50.850;4.504;2023-09-12T00:16:08;20.50;82.30
10192;DHT22;17580;50.850;4.504;2023-09-12T00:18:36;20.60;82.60
10192;DHT22;17580;50.850;4.504;2023-09-12T00:21:03;20.60;82.40
10192;DHT22;17580;50.850;4.504;2023-09-12T00:23:30;20.70;82.80
10192;DHT22;17580;50.850;4.504;2023-09-12T00:25:57;20.60;83.60
10192;DHT22;17580;50.850;4.504;2023-09-12T00:28:24;20.50;83.20
10192;DHT22;17580;50.850;4.504;2023-09-12T00:30:53;20.50;83.00
10192;DHT22;17580;50.850;4.504;2023-09-12T00:33:20;20.50;82.50
10192;DHT22;17580;50.850;4.504;2023-09-12T00:35:47;20.50;82.70
10192;DHT22;17580;50.850;4.504;2023-09-12T00:38:14;20.50;83.50
10192;DHT22;17580;50.850;4.504;2023-09-12T00:40:41;20.60;84.70
10192;DHT22;17580;50.850;4.504;2023-09-12T00:43:08;20.60;83.10
10192;DHT22;17580;50.850;4.504;2023-09-12T00:45:35;20.70;81.90
10192;DHT22;17580;50.850;4.504;2023-09-12T00:48:04;20.70;81.30
10192;DHT22;17580;50.850;4.504;2023-09-12T00:50:32;20.70;81.70
10192;DHT22;17580;50.850;4.504;2023-09-12T00:53:01;20.60;81.90
10192;DHT22;17580;50.850;4.504;2023-09-12T00:55:29;20.60;82.50
10192;DHT22;17580;50.850;4.504;2023-09-12T00:57:58;20.60;81.60
10192;DHT22;17580;50.850;4.504;2023-09-12T01:00:25;20.50;83.30
10192;DHT22;17580;50.850;4.504;2023-09-12T01:02:52;20.40;84.70
10192;DHT22;17580;50.850;4.504;2023-09-12T01:05:22;20.30;83.40
10192;DHT22;17580;50.850;4.504;2023-09-12T01:07:49;20.30;84.60
10192;DHT22;17580;50.850;4.504;2023-09-12T01:10:17;20.20;84.90
10192;DHT22;17580;50.850;4.504;2023-09-12T01:12:44;20.20;85.10
10192;DHT22;17580;50.850;4.504;2023-09-12T01:15:11;20.20;85.10
10192;DHT22;17580;50.850;4.504;2023-09-12T01:17:41;20.10;84.80
10192;DHT22;17580;50.850;4.504;2023-09-12T01:20:14;20.20;85.00
10192;DHT22;17580;50.850;4.504;2023-09-12T01:22:55;20.10;84.20
10192;DHT22;17580;50.850;4.504;2023-09-12T01:25:42;20.10;84.40
10192;DHT22;17580;50.850;4.504;2023-09-12T01:28:16;20.00;85.00
10192;DHT22;17580;50.850;4.504;2023-09-12T01:30:45;19.90;84.80
10192;DHT22;17580;50.850;4.504;2023-09-12T01:33:13;20.00;85.00
10192;DHT22;17580;50.850;4.504;2023-09-12T01:35:40;20.00;84.70
10192;DHT22;17580;50.850;4.504;2023-09-12T01:38:07;20.00;84.90
10192;DHT22;17580;50.850;4.504;2023-09-12T01:40:42;20.00;84.90
10192;DHT22;17580;50.850;4.504;2023-09-12T01:43:10;19.90;85.20
10192;DHT22;17580;50.850;4.504;2023-09-12T01:45:39;19.90;84.60
10192;DHT22;17580;50.850;4.504;2023-09-12T01:48:07;19.90;85.80
10192;DHT22;17580;50.850;4.504;2023-09-12T01:50:36;19.90;86.30
10192;DHT22;17580;50.850;4.504;2023-09-12T01:53:03;19.90;85.40
10192;DHT22;17580;50.850;4.504;2023-09-12T01:55:31;19.80;85.70
10192;DHT22;17580;50.850;4.504;2023-09-12T01:57:58;19.80;86.20
10192;DHT22;17580;50.850;4.504;2023-09-12T02:00:25;19.80;86.30
10192;DHT22;17580;50.850;4.504;2023-09-12T02:02:53;19.80;86.10
10192;DHT22;17580;50.850;4.504;2023-09-12T02:05:22;19.80;85.40
10192;DHT22;17580;50.850;4.504;2023-09-12T02:07:49;19.70;85.80
10192;DHT22;17580;50.850;4.504;2023-09-12T02:10:16;19.70;86.40
10192;DHT22;17580;50.850;4.504;2023-09-12T02:12:43;19.60;86.70
10192;DHT22;17580;50.850;4.504;2023-09-12T02:15:10;19.60;86.80
10192;DHT22;17580;50.850;4.504;2023-09-12T02:17:38;19.60;87.70
10192;DHT22;17580;50.850;4.504;2023-09-12T02:20:08;19.50;87.80
10192;DHT22;17580;50.850;4.504;2023-09-12T02:22:36;19.50;87.30
10192;DHT22;17580;50.850;4.504;2023-09-12T02:25:06;19.50;88.20
10192;DHT22;17580;50.850;4.504;2023-09-12T02:27:34;19.50;88.00
10192;DHT22;17580;50.850;4.504;2023-09-12T02:30:01;19.50;88.00
10192;DHT22;17580;50.850;4.504;2023-09-12T02:32:28;19.50;88.00
10192;DHT22;17580;50.850;4.504;2023-09-12T02:34:55;19.60;88.60
10192;DHT22;17580;50.850;4.504;2023-09-12T02:37:24;19.60;88.30
10192;DHT22;17580;50.850;4.504;2023-09-12T02:39:51;19.60;89.30
10192;DHT22;17580;50.850;4.504;2023-09-12T02:42:18;19.70;89.00
10192;DHT22;17580;50.850;4.504;2023-09-12T02:44:45;19.70;90.20
10192;DHT22;17580;50.850;4.504;2023-09-12T02:47:13;19.70;90.10
10192;DHT22;17580;50.850;4.504;2023-09-12T02:49:40;19.80;90.30
10192;DHT22;17580;50.850;4.504;2023-09-12T02:52:07;19.80;90.30
10192;DHT22;17580;50.850;4.504;2023-09-12T02:54:35;19.80;90.70
10192;DHT22;17580;50.850;4.504;2023-09-12T02:57:02;19.90;90.50
10192;DHT22;17580;50.850;4.504;2023-09-12T02:59:29;19.90;90.40
10192;DHT22;17580;50.850;4.504;2023-09-12T03:01:56;19.90;90.30
10192;DHT22;17580;50.850;4.504;2023-09-12T03:04:25;20.00;90.80
10192;DHT22;17580;50.850;4.504;2023-09-12T03:06:53;20.00;91.10
10192;DHT22;17580;50.850;4.504;2023-09-12T03:09:19;20.00;91.70
10192;DHT22;17580;50.850;4.504;2023-09-12T03:11:49;20.00;91.10
10192;DHT22;17580;50.850;4.504;2023-09-12T03:14:16;20.10;90.90
10192;DHT22;17580;50.850;4.504;2023-09-12T03:16:43;20.10;91.00
10192;DHT22;17580;50.850;4.504;2023-09-12T03:19:10;20.10;90.80
10192;DHT22;17580;50.850;4.504;2023-09-12T03:21:37;20.10;90.80
10192;DHT22;17580;50.850;4.504;2023-09-12T03:24:05;20.10;90.20
10192;DHT22;17580;50.850;4.504;2023-09-12T03:26:34;20.20;90.20
10192;DHT22;17580;50.850;4.504;2023-09-12T03:29:02;20.10;90.60
10192;DHT22;17580;50.850;4.504;2023-09-12T03:31:29;20.10;90.50
10192;DHT22;17580;50.850;4.504;2023-09-12T03:33:56;20.10;90.10
10192;DHT22;17580;50.850;4.504;2023-09-12T03:36:23;20.10;90.20
10192;DHT22;17580;50.850;4.504;2023-09-12T03:38:50;20.10;90.30
10192;DHT22;17580;50.850;4.504;2023-09-12T03:41:17;20.10;90.50
10192;DHT22;17580;50.850;4.504;2023-09-12T03:43:44;20.10;90.90
10192;DHT22;17580;50.850;4.504;2023-09-12T03:46:13;20.00;90.90
10192;DHT22;17580;50.850;4.504;2023-09-12T03:48:40;20.10;91.60
10192;DHT22;17580;50.850;4.504;2023-09-12T03:51:07;20.00;91.70
10192;DHT22;17580;50.850;4.504;2023-09-12T03:53:34;20.00;91.90
10192;DHT22;17580;50.850;4.504;2023-09-12T03:56:01;20.00;91.90
10192;DHT22;17580;50.850;4.504;2023-09-12T03:58:28;20.00;92.00
10192;DHT22;17580;50.850;4.504;2023-09-12T04:00:55;20.00;91.60
10192;DHT22;17580;50.850;4.504;2023-09-12T04:03:23;20.00;91.90
10192;DHT22;17580;50.850;4.504;2023-09-12T04:05:50;20.00;92.10
10192;DHT22;17580;50.850;4.504;2023-09-12T04:08:17;20.10;91.50
10192;DHT22;17580;50.850;4.504;2023-09-12T04:10:44;20.10;90.90
10192;DHT22;17580;50.850;4.504;2023-09-12T04:13:11;20.10;90.80
10192;DHT22;17580;50.850;4.504;2023-09-12T04:15:38;20.10;90.90
10192;DHT22;17580;50.850;4.504;2023-09-12T04:18:06;20.10;91.00
10192;DHT22;17580;50.850;4.504;2023-09-12T04:20:34;20.20;90.90
10192;DHT22;17580;50.850;4.504;2023-09-12T04:23:01;20.10;91.50
10192;DHT22;17580;50.850;4.504;2023-09-12T04:25:29;20.00;92.10
10192;DHT22;17580;50.850;4.504;2023-09-12T04:27:56;20.10;91.90
10192;DHT22;17580;50.850;4.504;2023-09-12T04:30:23;20.10;91.80
10192;DHT22;17580;50.850;4.504;2023-09-12T04:32:50;20.10;91.60
10192;DHT22;17580;50.850;4.504;2023-09-12T04:35:17;20.20;91.50
10192;DHT22;17580;50.850;4.504;2023-09-12T04:37:46;20.10;92.10
10192;DHT22;17580;50.850;4.504;2023-09-12T04:40:13;20.10;91.90
10192;DHT22;17580;50.850;4.504;2023-09-12T04:42:40;20.10;92.20
10192;DHT22;17580;50.850;4.504;2023-09-12T04:45:08;20.10;92.80
10192;DHT22;17580;50.850;4.504;2023-09-12T04:47:35;20.10;91.70
10192;DHT22;17580;50.850;4.504;2023-09-12T04:50:02;20.10;91.80
10192;DHT22;17580;50.850;4.504;2023-09-12T04:52:29;20.00;92.40
10192;DHT22;17580;50.850;4.504;2023-09-12T04:54:57;20.00;92.60
10192;DHT22;17580;50.850;4.504;2023-09-12T04:57:24;19.90;92.50
10192;DHT22;17580;50.850;4.504;2023-09-12T04:59:51;20.00;92.80
10192;DHT22;17580;50.850;4.504;2023-09-12T05:02:19;19.90;93.90
10192;DHT22;17580;50.850;4.504;2023-09-12T05:04:45;19.90;94.20
10192;DHT22;17580;50.850;4.504;2023-09-12T05:07:12;19.90;94.50
10192;DHT22;17580;50.850;4.504;2023-09-12T05:09:39;19.80;94.00
10192;DHT22;17580;50.850;4.504;2023-09-12T05:12:08;19.90;93.40
10192;DHT22;17580;50.850;4.504;2023-09-12T05:14:35;19.90;93.40
10192;DHT22;17580;50.850;4.504;2023-09-12T05:17:02;19.80;93.50
10192;DHT22;17580;50.850;4.504;2023-09-12T05:19:30;19.70;93.70
10192;DHT22;17580;50.850;4.504;2023-09-12T05:21:57;19.70;93.70
10192;DHT22;17580;50.850;4.504;2023-09-12T05:24:24;19.60;93.10
10192;DHT22;17580;50.850;4.504;2023-09-12T05:26:50;19.60;93.00
10192;DHT22;17580;50.850;4.504;2023-09-12T05:29:18;19.60;93.00
10192;DHT22;17580;50.850;4.504;2023-09-12T05:31:45;19.60;93.30
10192;DHT22;17580;50.850;4.504;2023-09-12T05:34:12;19.60;93.00
10192;DHT22;17580;50.850;4.504;2023-09-12T05:36:39;19.50;93.20
10192;DHT22;17580;50.850;4.504;2023-09-12T05:39:06;19.50;93.50
10192;DHT22;17580;50.850;4.504;2023-09-12T05:41:33;19.50;93.30
10192;DHT22;17580;50.850;4.504;2023-09-12T05:44:00;19.50;93.10
10192;DHT22;17580;50.850;4.504;2023-09-12T05:46:29;19.50;93.20
10192;DHT22;17580;50.850;4.504;2023-09-12T05:48:55;19.50;93.10
10192;DHT22;17580;50.850;4.504;2023-09-12T05:51:22;19.50;93.20
10192;DHT22;17580;50.850;4.504;2023-09-12T05:53:49;19.60;92.90
10192;DHT22;17580;50.850;4.504;2023-09-12T05:56:16;19.60;92.70
10192;DHT22;17580;50.850;4.504;2023-09-12T05:58:43;19.60;93.10
10192;DHT22;17580;50.850;4.504;2023-09-12T06:01:10;19.50;93.00
10192;DHT22;17580;50.850;4.504;2023-09-12T06:03:38;19.50;93.10
10192;DHT22;17580;50.850;4.504;2023-09-12T06:06:05;19.50;93.50
10192;DHT22;17580;50.850;4.504;2023-09-12T06:08:32;19.60;94.10
10192;DHT22;17580;50.850;4.504;2023-09-12T06:10:59;19.60;93.90
10192;DHT22;17580;50.850;4.504;2023-09-12T06:13:26;19.70;93.20
10192;DHT22;17580;50.850;4.504;2023-09-12T06:15:53;19.70;93.10
10192;DHT22;17580;50.850;4.504;2023-09-12T06:18:20;19.70;93.60
10192;DHT22;17580;50.850;4.504;2023-09-12T06:20:49;19.70;93.40
10192;DHT22;17580;50.850;4.504;2023-09-12T06:23:17;19.60;93.80
10192;DHT22;17580;50.850;4.504;2023-09-12T06:25:44;19.70;94.10
10192;DHT22;17580;50.850;4.504;2023-09-12T06:28:11;19.70;94.00
10192;DHT22;17580;50.850;4.504;2023-09-12T06:30:38;19.80;93.30
10192;DHT22;17580;50.850;4.504;2023-09-12T06:33:05;19.80;94.00
10192;DHT22;17580;50.850;4.504;2023-09-12T06:35:32;19.80;94.20
10192;DHT22;17580;50.850;4.504;2023-09-12T06:38:01;19.80;94.40
10192;DHT22;17580;50.850;4.504;2023-09-12T06:40:27;19.90;94.30
10192;DHT22;17580;50.850;4.504;2023-09-12T06:42:54;19.90;94.20
10192;DHT22;17580;50.850;4.504;2023-09-12T06:45:21;20.00;94.30
10192;DHT22;17580;50.850;4.504;2023-09-12T06:47:48;20.10;94.20
10192;DHT22;17580;50.850;4.504;2023-09-12T06:50:15;20.20;94.10
10192;DHT22;17580;50.850;4.504;2023-09-12T06:52:42;20.20;93.80
10192;DHT22;17580;50.850;4.504;2023-09-12T06:55:11;20.30;93.60
10192;DHT22;17580;50.850;4.504;2023-09-12T06:57:37;20.40;93.00
10192;DHT22;17580;50.850;4.504;2023-09-12T07:00:06;20.50;92.50
10192;DHT22;17580;50.850;4.504;2023-09-12T07:02:33;20.60;92.50
10192;DHT22;17580;50.850;4.504;2023-09-12T07:05:00;20.70;92.50
10192;DHT22;17580;50.850;4.504;2023-09-12T07:07:29;20.90;91.80
10192;DHT22;17580;50.850;4.504;2023-09-12T07:09:56;21.00;92.00
10192;DHT22;17580;50.850;4.504;2023-09-12T07:12:24;21.10;90.00
10192;DHT22;17580;50.850;4.504;2023-09-12T07:14:51;21.10;87.10
10192;DHT22;17580;50.850;4.504;2023-09-12T07:17:18;21.20;90.30
10192;DHT22;17580;50.850;4.504;2023-09-12T07:19:45;21.20;90.50
10192;DHT22;17580;50.850;4.504;2023-09-12T07:22:12;21.20;90.00
10192;DHT22;17580;50.850;4.504;2023-09-12T07:24:39;21.30;90.20
10192;DHT22;17580;50.850;4.504;2023-09-12T07:27:06;21.40;90.10
10192;DHT22;17580;50.850;4.504;2023-09-12T07:29:34;21.60;88.50
10192;DHT22;17580;50.850;4.504;2023-09-12T07:32:01;21.70;84.80
10192;DHT22;17580;50.850;4.504;2023-09-12T07:34:28;21.80;85.50
10192;DHT22;17580;50.850;4.504;2023-09-12T07:36:55;21.80;82.30
10192;DHT22;17580;50.850;4.504;2023-09-12T07:39:22;21.90;81.00
10192;DHT22;17580;50.850;4.504;2023-09-12T07:41:48;21.90;82.40
10192;DHT22;17580;50.850;4.504;2023-09-12T07:44:15;22.20;81.50
10192;DHT22;17580;50.850;4.504;2023-09-12T07:46:44;22.50;79.90
10192;DHT22;17580;50.850;4.504;2023-09-12T07:49:11;22.80;73.40
10192;DHT22;17580;50.850;4.504;2023-09-12T07:51:38;22.80;70.20
10192;DHT22;17580;50.850;4.504;2023-09-12T07:54:05;22.60;70.80
10192;DHT22;17580;50.850;4.504;2023-09-12T07:56:32;22.60;71.20
10192;DHT22;17580;50.850;4.504;2023-09-12T07:58:58;22.50;71.00
10192;DHT22;17580;50.850;4.504;2023-09-12T08:01:25;22.50;70.60
10192;DHT22;17580;50.850;4.504;2023-09-12T08:03:54;22.60;67.50
10192;DHT22;17580;50.850;4.504;2023-09-12T08:06:21;22.60;72.20
10192;DHT22;17580;50.850;4.504;2023-09-12T08:08:49;22.70;69.00
10192;DHT22;17580;50.850;4.504;2023-09-12T08:11:16;22.70;68.80
10192;DHT22;17580;50.850;4.504;2023-09-12T08:13:48;22.80;71.00
10192;DHT22;17580;50.850;4.504;2023-09-12T08:16:15;22.80;66.30
10192;DHT22;17580;50.850;4.504;2023-09-12T08:18:42;22.90;64.60
10192;DHT22;17580;50.850;4.504;2023-09-12T08:21:10;23.00;65.10
10192;DHT22;17580;50.850;4.504;2023-09-12T08:23:37;23.10;63.70
10192;DHT22;17580;50.850;4.504;2023-09-12T08:26:04;23.20;64.50
10192;DHT22;17580;50.850;4.504;2023-09-12T08:28:31;23.40;61.00
10192;DHT22;17580;50.850;4.504;2023-09-12T08:30:58;23.30;63.90
10192;DHT22;17580;50.850;4.504;2023-09-12T08:33:25;23.30;62.10
10192;DHT22;17580;50.850;4.504;2023-09-12T08:35:52;23.20;63.30
10192;DHT22;17580;50.850;4.504;2023-09-12T08:38:20;23.40;63.50
10192;DHT22;17580;50.850;4.504;2023-09-12T08:40:48;23.70;60.00
10192;DHT22;17580;50.850;4.504;2023-09-12T08:43:16;24.00;60.00
10192;DHT22;17580;50.850;4.504;2023-09-12T08:45:43;24.30;57.60
10192;DHT22;17580;50.850;4.504;2023-09-12T08:48:11;24.60;58.10
10192;DHT22;17580;50.850;4.504;2023-09-12T08:50:38;25.40;55.80
10192;DHT22;17580;50.850;4.504;2023-09-12T08:53:06;26.60;50.90
10192;DHT22;17580;50.850;4.504;2023-09-12T08:55:35;27.00;46.60
10192;DHT22;17580;50.850;4.504;2023-09-12T08:58:03;27.90;43.50
10192;DHT22;17580;50.850;4.504;2023-09-12T09:00:30;28.50;41.30
10192;DHT22;17580;50.850;4.504;2023-09-12T09:02:58;28.20;37.50
10192;DHT22;17580;50.850;4.504;2023-09-12T09:05:27;28.70;39.50
10192;DHT22;17580;50.850;4.504;2023-09-12T09:07:55;29.70;35.60
10192;DHT22;17580;50.850;4.504;2023-09-12T09:10:23;30.00;30.90
10192;DHT22;17580;50.850;4.504;2023-09-12T09:12:53;30.60;30.00
10192;DHT22;17580;50.850;4.504;2023-09-12T09:15:21;30.30;29.10
10192;DHT22;17580;50.850;4.504;2023-09-12T09:17:48;30.50;27.00
10192;DHT22;17580;50.850;4.504;2023-09-12T09:20:27;30.20;27.30
10192;DHT22;17580;50.850;4.504;2023-09-12T09:22:58;30.70;27.90
10192;DHT22;17580;50.850;4.504;2023-09-12T09:25:26;31.00;26.30
10192;DHT22;17580;50.850;4.504;2023-09-12T09:27:54;31.00;26.60
10192;DHT22;17580;50.850;4.504;2023-09-12T09:30:41;31.70;24.10
10192;DHT22;17580;50.850;4.504;2023-09-12T09:33:08;31.90;23.30
10192;DHT22;17580;50.850;4.504;2023-09-12T09:35:36;32.40;22.10
10192;DHT22;17580;50.850;4.504;2023-09-12T09:38:06;32.10;22.70
10192;DHT22;17580;50.850;4.504;2023-09-12T09:40:34;32.10;21.90
10192;DHT22;17580;50.850;4.504;2023-09-12T09:43:03;31.90;22.00
10192;DHT22;17580;50.850;4.504;2023-09-12T09:45:31;31.60;20.50
10192;DHT22;17580;50.850;4.504;2023-09-12T09:47:58;32.20;20.70
10192;DHT22;17580;50.850;4.504;2023-09-12T09:50:26;32.00;21.60
10192;DHT22;17580;50.850;4.504;2023-09-12T09:52:55;32.80;18.20
10192;DHT22;17580;50.850;4.504;2023-09-12T09:55:23;33.30;18.20
10192;DHT22;17580;50.850;4.504;2023-09-12T09:57:50;33.40;17.30
10192;DHT22;17580;50.850;4.504;2023-09-12T10:00:22;34.00;16.70
10192;DHT22;17580;50.850;4.504;2023-09-12T10:02:50;34.60;14.70
10192;DHT22;17580;50.850;4.504;2023-09-12T10:05:18;35.20;13.40
10192;DHT22;17580;50.850;4.504;2023-09-12T10:07:48;34.60;12.40
10192;DHT22;17580;50.850;4.504;2023-09-12T10:10:17;35.10;11.30
10192;DHT22;17580;50.850;4.504;2023-09-12T10:12:49;35.20;10.30
10192;DHT22;17580;50.850;4.504;2023-09-12T10:15:20;35.20;10.00
10192;DHT22;17580;50.850;4.504;2023-09-12T10:17:54;35.30;10.10
10192;DHT22;17580;50.850;4.504;2023-09-12T10:20:25;35.20;10.60
10192;DHT22;17580;50.850;4.504;2023-09-12T10:23:03;35.10;9.80
10192;DHT22;17580;50.850;4.504;2023-09-12T10:25:35;35.10;8.40
10192;DHT22;17580;50.850;4.504;2023-09-12T10:28:04;34.20;9.60
10192;DHT22;17580;50.850;4.504;2023-09-12T10:30:33;33.60;9.80
10192;DHT22;17580;50.850;4.504;2023-09-12T10:33:02;34.00;10.60
10192;DHT22;17580;50.850;4.504;2023-09-12T10:35:30;32.90;12.20
10192;DHT22;17580;50.850;4.504;2023-09-12T10:38:00;31.90;12.80
10192;DHT22;17580;50.850;4.504;2023-09-12T10:40:30;31.30;12.40
10192;DHT22;17580;50.850;4.504;2023-09-12T10:43:00;30.40;14.80
10192;DHT22;17580;50.850;4.504;2023-09-12T10:45:30;29.70;17.60
10192;DHT22;17580;50.850;4.504;2023-09-12T10:47:59;29.30;18.60
10192;DHT22;17580;50.850;4.504;2023-09-12T10:50:26;28.90;20.40
10192;DHT22;17580;50.850;4.504;2023-09-12T10:52:54;28.50;20.00
10192;DHT22;17580;50.850;4.504;2023-09-12T10:55:21;28.40;20.10
10192;DHT22;17580;50.850;4.504;2023-09-12T10:58:01;29.30;17.90
10192;DHT22;17580;50.850;4.504;2023-09-12T11:00:29;31.10;16.60
10192;DHT22;17580;50.850;4.504;2023-09-12T11:03:00;32.10;13.80
10192;DHT22;17580;50.850;4.504;2023-09-12T11:05:37;33.10;14.80
10192;DHT22;17580;50.850;4.504;2023-09-12T11:08:16;33.90;10.50
10192;DHT22;17580;50.850;4.504;2023-09-12T11:10:43;34.00;11.20
10192;DHT22;17580;50.850;4.504;2023-09-12T11:13:17;33.90;9.70
10192;DHT22;17580;50.850;4.504;2023-09-12T11:16:12;34.00;12.60
10192;DHT22;17580;50.850;4.504;2023-09-12T11:19:13;34.10;9.90
10192;DHT22;17580;50.850;4.504;2023-09-12T11:21:41;34.10;9.30
10192;DHT22;17580;50.850;4.504;2023-09-12T11:24:09;34.20;10.70
10192;DHT22;17580;50.850;4.504;2023-09-12T11:26:58;33.80;11.20
10192;DHT22;17580;50.850;4.504;2023-09-12T11:29:29;34.30;10.10
10192;DHT22;17580;50.850;4.504;2023-09-12T11:31:58;34.00;9.20
10192;DHT22;17580;50.850;4.504;2023-09-12T11:34:27;32.80;11.60
10192;DHT22;17580;50.850;4.504;2023-09-12T11:36:55;32.00;11.00
10192;DHT22;17580;50.850;4.504;2023-09-12T11:39:24;31.30;12.70
10192;DHT22;17580;50.850;4.504;2023-09-12T11:41:51;30.90;13.50
10192;DHT22;17580;50.850;4.504;2023-09-12T11:44:19;30.30;14.40
10192;DHT22;17580;50.850;4.504;2023-09-12T11:46:48;29.90;14.70
10192;DHT22;17580;50.850;4.504;2023-09-12T11:49:16;29.70;14.90
10192;DHT22;17580;50.850;4.504;2023-09-12T11:51:49;29.40;15.40
10192;DHT22;17580;50.850;4.504;2023-09-12T11:54:24;29.40;14.60
10192;DHT22;17580;50.850;4.504;2023-09-12T11:56:51;30.90;14.30
10192;DHT22;17580;50.850;4.504;2023-09-12T11:59:22;32.20;12.00
10192;DHT22;17580;50.850;4.504;2023-09-12T12:01:49;33.10;11.70
10192;DHT22;17580;50.850;4.504;2023-09-12T12:04:17;34.00;8.90
10192;DHT22;17580;50.850;4.504;2023-09-12T12:06:44;34.50;7.70
10192;DHT22;17580;50.850;4.504;2023-09-12T12:09:12;34.50;9.20
10192;DHT22;17580;50.850;4.504;2023-09-12T12:11:40;35.00;8.50
10192;DHT22;17580;50.850;4.504;2023-09-12T12:14:12;34.20;6.00
10192;DHT22;17580;50.850;4.504;2023-09-12T12:16:40;34.20;6.30
10192;DHT22;17580;50.850;4.504;2023-09-12T12:19:08;34.50;6.40
10192;DHT22;17580;50.850;4.504;2023-09-12T12:21:35;34.20;6.50
10192;DHT22;17580;50.850;4.504;2023-09-12T12:24:03;33.50;7.80
10192;DHT22;17580;50.850;4.504;2023-09-12T12:26:32;34.00;9.40
10192;DHT22;17580;50.850;4.504;2023-09-12T12:29:00;34.50;7.80
10192;DHT22;17580;50.850;4.504;2023-09-12T12:31:28;35.00;5.90
10192;DHT22;17580;50.850;4.504;2023-09-12T12:33:55;35.20;5.50
10192;DHT22;17580;50.850;4.504;2023-09-12T12:36:23;35.40;5.60
10192;DHT22;17580;50.850;4.504;2023-09-12T12:38:50;35.50;5.80
10192;DHT22;17580;50.850;4.504;2023-09-12T12:41:23;35.10;5.50
10192;DHT22;17580;50.850;4.504;2023-09-12T12:43:52;34.60;4.20
10192;DHT22;17580;50.850;4.504;2023-09-12T12:46:20;33.70;4.80
10192;DHT22;17580;50.850;4.504;2023-09-12T12:48:48;32.80;6.60
10192;DHT22;17580;50.850;4.504;2023-09-12T12:51:16;31.70;9.50
10192;DHT22;17580;50.850;4.504;2023-09-12T12:53:45;30.80;11.10
10192;DHT22;17580;50.850;4.504;2023-09-12T12:56:13;30.20;11.30
10192;DHT22;17580;50.850;4.504;2023-09-12T12:58:46;29.70;12.00
10192;DHT22;17580;50.850;4.504;2023-09-12T13:01:15;29.20;13.80
10192;DHT22;17580;50.850;4.504;2023-09-12T13:03:42;28.70;15.40
10192;DHT22;17580;50.850;4.504;2023-09-12T13:06:10;28.30;15.40
10192;DHT22;17580;50.850;4.504;2023-09-12T13:08:40;28.10;16.40
10192;DHT22;17580;50.850;4.504;2023-09-12T13:11:08;28.00;17.80
10192;DHT22;17580;50.850;4.504;2023-09-12T13:13:35;28.00;17.50
10192;DHT22;17580;50.850;4.504;2023-09-12T13:16:03;28.10;17.90
10192;DHT22;17580;50.850;4.504;2023-09-12T13:18:33;27.90;17.50
10192;DHT22;17580;50.850;4.504;2023-09-12T13:21:00;27.60;18.10
10192;DHT22;17580;50.850;4.504;2023-09-12T13:23:27;27.50;20.00
10192;DHT22;17580;50.850;4.504;2023-09-12T13:25:55;27.30;19.80
10192;DHT22;17580;50.850;4.504;2023-09-12T13:28:22;27.30;18.90
10192;DHT22;17580;50.850;4.504;2023-09-12T13:30:51;27.20;20.30
10192;DHT22;17580;50.850;4.504;2023-09-12T13:33:18;27.10;20.80
10192;DHT22;17580;50.850;4.504;2023-09-12T13:35:47;26.90;20.70
10192;DHT22;17580;50.850;4.504;2023-09-12T13:38:15;26.80;21.00
10192;DHT22;17580;50.850;4.504;2023-09-12T13:40:44;26.60;22.00
10192;DHT22;17580;50.850;4.504;2023-09-12T13:43:12;26.50;21.60
10192;DHT22;17580;50.850;4.504;2023-09-12T13:45:39;26.40;21.20
10192;DHT22;17580;50.850;4.504;2023-09-12T13:48:06;26.30;22.30
10192;DHT22;17580;50.850;4.504;2023-09-12T13:50:34;26.20;21.00
10192;DHT22;17580;50.850;4.504;2023-09-12T13:53:03;26.00;22.70
10192;DHT22;17580;50.850;4.504;2023-09-12T13:55:32;26.00;23.50
10192;DHT22;17580;50.850;4.504;2023-09-12T13:58:01;26.10;22.90
10192;DHT22;17580;50.850;4.504;2023-09-12T14:00:28;26.00;22.70
10192;DHT22;17580;50.850;4.504;2023-09-12T14:02:55;26.00;21.80
10192;DHT22;17580;50.850;4.504;2023-09-12T14:05:22;26.00;23.00
10192;DHT22;17580;50.850;4.504;2023-09-12T14:07:50;26.10;23.20
10192;DHT22;17580;50.850;4.504;2023-09-12T14:10:18;26.20;23.90
10192;DHT22;17580;50.850;4.504;2023-09-12T14:12:45;26.10;22.30
10192;DHT22;17580;50.850;4.504;2023-09-12T14:15:12;26.00;23.10
10192;DHT22;17580;50.850;4.504;2023-09-12T14:17:40;26.10;22.20
10192;DHT22;17580;50.850;4.504;2023-09-12T14:20:08;26.00;22.20
10192;DHT22;17580;50.850;4.504;2023-09-12T14:22:36;25.90;23.50
10192;DHT22;17580;50.850;4.504;2023-09-12T14:25:03;25.90;24.30
10192;DHT22;17580;50.850;4.504;2023-09-12T14:27:32;25.90;24.70
10192;DHT22;17580;50.850;4.504;2023-09-12T14:29:59;25.80;24.40
10192;DHT22;17580;50.850;4.504;2023-09-12T14:32:26;25.80;24.50
10192;DHT22;17580;50.850;4.504;2023-09-12T14:34:53;25.70;25.20
10192;DHT22;17580;50.850;4.504;2023-09-12T14:37:20;25.60;24.60
10192;DHT22;17580;50.850;4.504;2023-09-12T14:39:48;25.50;24.70
10192;DHT22;17580;50.850;4.504;2023-09-12T14:42:15;25.40;25.80
10192;DHT22;17580;50.850;4.504;2023-09-12T14:44:43;25.40;25.70
10192;DHT22;17580;50.850;4.504;2023-09-12T14:47:10;25.50;25.20
10192;DHT22;17580;50.850;4.504;2023-09-12T14:49:37;25.40;25.50
10192;DHT22;17580;50.850;4.504;2023-09-12T14:52:05;25.30;25.50
10192;DHT22;17580;50.850;4.504;2023-09-12T14:54:32;25.20;26.80
10192;DHT22;17580;50.850;4.504;2023-09-12T14:56:59;25.20;26.50
10192;DHT22;17580;50.850;4.504;2023-09-12T14:59:26;25.30;27.50
10192;DHT22;17580;50.850;4.504;2023-09-12T15:01:54;25.30;27.30
10192;DHT22;17580;50.850;4.504;2023-09-12T15:04:21;25.30;27.60
10192;DHT22;17580;50.850;4.504;2023-09-12T15:06:49;25.20;27.00
10192;DHT22;17580;50.850;4.504;2023-09-12T15:09:16;25.00;27.70
10192;DHT22;17580;50.850;4.504;2023-09-12T15:11:43;24.90;27.80
10192;DHT22;17580;50.850;4.504;2023-09-12T15:14:10;25.00;27.50
10192;DHT22;17580;50.850;4.504;2023-09-12T15:16:37;24.80;28.40
10192;DHT22;17580;50.850;4.504;2023-09-12T15:19:05;24.70;27.90
10192;DHT22;17580;50.850;4.504;2023-09-12T15:21:32;24.60;27.90
10192;DHT22;17580;50.850;4.504;2023-09-12T15:23:59;24.60;28.50
10192;DHT22;17580;50.850;4.504;2023-09-12T15:26:26;24.50;29.00
10192;DHT22;17580;50.850;4.504;2023-09-12T15:28:53;24.50;28.40
10192;DHT22;17580;50.850;4.504;2023-09-12T15:31:20;24.40;29.30
10192;DHT22;17580;50.850;4.504;2023-09-12T15:33:47;24.40;28.30
10192;DHT22;17580;50.850;4.504;2023-09-12T15:36:15;24.30;28.10
10192;DHT22;17580;50.850;4.504;2023-09-12T15:38:42;24.30;28.00